createdAt,value
2018-11-23T00:03:11.387Z,41.23
2018-11-23T00:08:16.372Z,35.27
2018-11-23T00:13:21.277Z,36.80
2018-11-23T00:18:26.160Z,37.67
2018-11-23T00:23:30.958Z,36.97
2018-11-23T00:28:36.043Z,34.33
2018-11-23T00:33:40.999Z,33.80
2018-11-23T00:38:46.238Z,36.80
2018-11-23T00:43:51.218Z,37.07
2018-11-23T00:48:56.340Z,35.50
2018-11-23T00:54:01.463Z,37.73
2018-11-23T00:59:06.892Z,36.53
2018-11-23T01:04:11.660Z,34.90
2018-11-23T01:09:16.622Z,38.03
2018-11-23T01:14:21.533Z,34.83
2018-11-23T01:19:26.831Z,39.07
2018-11-23T01:24:31.837Z,36.37
2018-11-23T01:29:36.850Z,35.83
2018-11-23T01:34:41.729Z,35.77
2018-11-23T01:39:46.815Z,35.93
2018-11-23T01:44:52.199Z,35.43
2018-11-23T01:49:57.102Z,34.70
2018-11-23T01:55:02.134Z,37.50
2018-11-23T02:00:08.512Z,34.70
2018-11-23T02:05:13.652Z,36.93
2018-11-23T02:10:19.161Z,36.38
2018-11-23T02:15:24.405Z,37.20
2018-11-23T02:20:29.599Z,34.53
2018-11-23T02:25:34.449Z,35.20
2018-11-23T02:30:39.797Z,33.77
2018-11-23T02:35:44.737Z,36.00
2018-11-23T02:40:49.714Z,37.63
2018-11-23T02:45:54.534Z,40.50
2018-11-23T02:50:59.684Z,38.07
2018-11-23T02:56:04.532Z,38.77
2018-11-23T03:01:09.514Z,36.77
2018-11-23T03:06:14.328Z,37.60
2018-11-23T03:11:19.419Z,39.07
2018-11-23T03:16:24.447Z,38.00
2018-11-23T03:21:29.754Z,38.50
2018-11-23T03:26:34.767Z,37.70
2018-11-23T03:31:39.700Z,39.27
2018-11-23T03:36:44.600Z,37.40
2018-11-23T03:41:49.632Z,39.23
2018-11-23T03:46:54.680Z,35.92
2018-11-23T03:51:59.972Z,39.57
2018-11-23T03:57:04.788Z,38.20
2018-11-23T04:02:09.788Z,38.60
2018-11-23T04:07:14.741Z,40.40
2018-11-23T04:12:19.938Z,40.27
2018-11-23T04:17:24.986Z,36.88
2018-11-23T04:22:30.133Z,40.33
2018-11-23T04:27:34.930Z,40.80
2018-11-23T04:32:39.988Z,38.53
2018-11-23T04:37:45.679Z,40.40
2018-11-23T04:42:50.729Z,38.70
2018-11-23T04:47:55.669Z,37.53
2018-11-23T04:53:01.334Z,37.40
2018-11-23T04:58:06.793Z,34.40
2018-11-23T05:03:12.786Z,44.03
2018-11-23T05:08:18.118Z,40.57
2018-11-23T05:13:23.448Z,38.70
2018-11-23T05:18:28.644Z,40.17
2018-11-23T05:23:34.024Z,40.05
2018-11-23T05:28:39.054Z,38.87
2018-11-23T05:33:45.211Z,36.70
2018-11-23T05:38:50.697Z,36.63
2018-11-23T05:43:56.062Z,37.80
2018-11-23T05:49:02.329Z,42.93
2018-11-23T05:54:07.693Z,42.07
2018-11-23T05:59:12.932Z,37.53
2018-11-23T06:04:18.073Z,40.67
2018-11-23T06:09:22.998Z,43.37
2018-11-23T06:14:27.918Z,38.55
2018-11-23T06:19:33.273Z,36.90
2018-11-23T06:24:38.150Z,34.85
2018-11-23T06:29:43.049Z,36.77
2018-11-23T06:34:48.024Z,40.83
2018-11-23T06:39:53.504Z,38.00
2018-11-23T06:44:58.333Z,40.03
2018-11-23T06:50:03.525Z,38.30
2018-11-23T06:55:09.226Z,38.65
2018-11-23T07:00:34.385Z,41.23
2018-11-23T07:05:46.323Z,43.17
2018-11-23T07:10:51.174Z,39.78
2018-11-23T07:15:56.990Z,41.30
2018-11-23T07:21:02.104Z,39.13
2018-11-23T07:26:07.040Z,41.87
2018-11-23T07:31:12.091Z,38.17
2018-11-23T07:36:17.124Z,41.00
2018-11-23T07:41:33.437Z,44.47
2018-11-23T09:01:17.893Z,38.07
2018-11-23T09:06:22.817Z,40.10
2018-11-23T09:11:28.086Z,41.48
2018-11-23T09:16:32.829Z,37.80
2018-11-23T09:21:37.580Z,38.23
2018-11-23T09:26:42.594Z,38.65
2018-11-23T09:31:47.450Z,44.53
2018-11-23T09:36:52.422Z,40.83
2018-11-23T09:41:57.255Z,38.17
2018-11-23T09:47:02.400Z,38.43
2018-11-23T09:52:07.271Z,41.93
2018-11-23T09:57:12.174Z,41.60
2018-11-23T10:02:17.183Z,43.57
2018-11-23T10:07:22.096Z,39.10
2018-11-23T10:12:27.038Z,40.03
2018-11-23T10:17:32.023Z,40.23
2018-11-23T10:22:36.907Z,41.20
2018-11-23T10:27:42.387Z,42.77
2018-11-23T10:34:26.108Z,42.53
2018-11-23T10:39:31.216Z,41.83
2018-11-23T10:44:36.169Z,45.05
2018-11-23T10:49:41.038Z,41.20
2018-11-23T10:54:45.981Z,40.33
2018-11-23T11:03:02.562Z,37.27
2018-11-23T11:08:15.417Z,40.50
2018-11-23T11:13:22.549Z,43.80
2018-11-23T11:18:28.880Z,40.60
2018-11-23T11:23:33.821Z,46.97
2018-11-23T11:28:38.839Z,41.73
2018-11-23T11:39:29.171Z,43.80
2018-11-23T11:44:34.032Z,41.23
2018-11-23T11:49:38.925Z,42.70
2018-11-23T11:54:43.687Z,40.80
2018-11-23T11:59:48.535Z,42.27
2018-11-23T12:04:53.533Z,41.40
2018-11-23T12:09:58.349Z,40.33
2018-11-23T12:15:03.132Z,45.07
2018-11-23T12:20:10.572Z,41.45
2018-11-23T12:25:15.840Z,40.97
2018-11-23T12:30:21.482Z,37.80
2018-11-23T12:35:26.373Z,37.63
2018-11-23T12:40:31.176Z,41.37
2018-11-23T12:45:36.498Z,36.95
2018-11-23T12:50:41.433Z,39.03
2018-11-23T12:55:46.308Z,38.50
2018-11-23T13:00:51.193Z,37.83
2018-11-23T13:05:56.011Z,39.73
2018-11-23T13:11:00.806Z,38.73
2018-11-23T13:16:05.626Z,38.53
2018-11-23T13:21:10.472Z,37.20
2018-11-23T13:26:15.470Z,38.30
2018-11-23T13:31:20.469Z,39.17
2018-11-23T13:36:25.568Z,36.57
2018-11-23T13:41:30.606Z,37.75
2018-11-23T13:46:35.411Z,37.87
2018-11-23T13:51:40.289Z,39.50
2018-11-23T13:56:45.042Z,36.73
2018-11-23T14:01:49.796Z,35.40
2018-11-23T14:06:54.749Z,38.40
2018-11-23T14:11:59.698Z,37.43
2018-11-23T14:17:04.709Z,37.87
2018-11-23T14:22:09.661Z,37.20
2018-11-23T14:27:14.508Z,40.47
2018-11-23T14:32:19.763Z,38.28
2018-11-23T14:37:25.332Z,39.90
2018-11-23T14:42:30.243Z,41.18
2018-11-23T14:47:35.146Z,38.23
2018-11-23T14:52:40.226Z,46.20
2018-11-23T14:57:45.516Z,39.70
2018-11-23T15:02:52.078Z,39.97
2018-11-23T15:07:57.324Z,37.57
2018-11-23T15:13:03.118Z,43.20
2018-11-23T15:18:08.759Z,40.55
2018-11-23T15:23:16.734Z,38.35
2018-11-23T15:28:21.697Z,41.70
2018-11-23T15:33:26.727Z,42.73
2018-11-23T15:38:31.563Z,43.33
2018-11-23T15:43:36.766Z,41.03
2018-11-23T15:48:41.961Z,43.58
2018-11-23T15:53:46.948Z,41.73
2018-11-23T15:58:52.064Z,40.97
2018-11-23T16:03:57.136Z,39.67
2018-11-23T16:09:02.186Z,43.47
2018-11-23T16:14:06.986Z,40.33
2018-11-23T16:19:11.944Z,42.00
2018-11-23T16:24:16.863Z,42.78
2018-11-23T16:29:21.783Z,43.30
2018-11-23T16:34:26.729Z,43.80
2018-11-23T16:39:31.542Z,42.55
2018-11-23T16:44:36.880Z,43.60
2018-11-23T16:49:42.043Z,44.40
2018-11-23T16:54:46.986Z,45.40
2018-11-23T16:59:52.005Z,42.90
2018-11-23T17:04:57.079Z,42.00
2018-11-23T17:10:02.281Z,39.87
2018-11-23T17:15:08.789Z,42.67
2018-11-23T17:20:16.301Z,41.20
2018-11-23T17:25:23.412Z,39.45
2018-11-23T17:30:29.737Z,40.73
2018-11-23T17:35:34.841Z,42.87
2018-11-23T17:40:40.900Z,40.05
2018-11-23T17:45:45.778Z,42.48
2018-11-23T17:50:50.645Z,43.35
2018-11-23T17:55:55.543Z,44.27
2018-11-23T18:01:00.403Z,43.90
2018-11-23T18:06:05.892Z,46.73
2018-11-23T18:11:10.823Z,47.00
2018-11-23T18:16:15.700Z,40.67
2018-11-23T18:21:20.618Z,46.37
2018-11-23T18:26:26.685Z,42.70
2018-11-23T18:31:34.067Z,44.83
2018-11-23T18:36:40.475Z,45.10
2018-11-23T18:41:48.355Z,45.03
2018-11-23T18:46:53.924Z,45.13
2018-11-23T18:51:59.458Z,42.98
2018-11-23T18:57:04.435Z,42.73
2018-11-23T19:02:10.833Z,44.27
2018-11-23T19:07:16.165Z,45.23
2018-11-23T19:12:21.976Z,43.90
2018-11-23T19:17:27.424Z,46.03
2018-11-23T19:22:32.337Z,44.70
2018-11-23T19:27:37.622Z,44.07
2018-11-23T19:32:42.801Z,47.77
2018-11-23T19:37:48.427Z,43.60
2018-11-23T19:42:53.773Z,43.90
2018-11-23T19:47:59.131Z,45.63
2018-11-23T19:53:04.256Z,45.40
2018-11-23T19:58:10.466Z,45.03
2018-11-23T20:03:15.448Z,42.23
2018-11-23T20:08:20.423Z,40.40
2018-11-23T20:13:25.864Z,45.00
2018-11-23T20:18:30.972Z,43.83
2018-11-23T20:23:35.915Z,45.10
2018-11-23T20:28:41.036Z,44.97
2018-11-23T20:33:46.031Z,46.40
2018-11-23T20:38:50.905Z,46.13
2018-11-23T20:43:55.934Z,42.03
2018-11-23T20:49:01.067Z,42.13
2018-11-23T20:54:05.948Z,44.20
2018-11-23T20:59:11.656Z,41.73
2018-11-23T21:04:16.691Z,39.45
2018-11-23T21:09:21.758Z,40.40
2018-11-23T21:14:26.577Z,42.10
2018-11-23T21:19:31.512Z,41.05
2018-11-23T21:24:36.622Z,44.17
2018-11-23T21:29:41.487Z,41.25
2018-11-23T21:34:46.368Z,41.10
2018-11-23T21:39:51.204Z,45.07
2018-11-23T21:44:56.877Z,42.47
2018-11-23T21:50:00.766Z,42.98
2018-11-23T21:55:10.642Z,36.97
2018-11-23T22:00:16.117Z,41.73
2018-11-23T22:05:20.901Z,42.10
2018-11-23T22:10:25.831Z,42.80
2018-11-23T22:15:30.685Z,40.43
2018-11-23T22:20:35.596Z,42.30
2018-11-23T22:25:40.376Z,42.73
2018-11-23T22:30:45.406Z,40.00
2018-11-23T22:35:50.237Z,44.67
2018-11-23T22:40:55.342Z,42.43
2018-11-23T22:46:00.172Z,39.27
2018-11-23T22:51:05.751Z,42.60
2018-11-23T22:56:16.107Z,45.20
2018-11-23T23:01:21.023Z,38.30
2018-11-23T23:06:26.089Z,40.67
2018-11-23T23:11:31.006Z,43.00
2018-11-23T23:16:36.085Z,40.10
2018-11-23T23:21:41.210Z,43.20
2018-11-23T23:26:46.262Z,39.20
2018-11-23T23:31:51.297Z,44.50
2018-11-23T23:36:56.352Z,38.63
2018-11-23T23:42:01.363Z,40.43
2018-11-23T23:47:06.274Z,40.05
2018-11-23T23:52:11.127Z,41.37
2018-11-23T23:57:16.011Z,40.07
